Time;durP1;ratioP1;P1;durP2;ratioP2;P2;SDS_P1;SDS_P2;PMS_P1;PMS_P2;Temp;Humidity;BMP_temperature;BMP_pressure;BME280_temperature;BME280_humidity;BME280_pressure;Samples;Min_cycle;Max_cycle;Signal;HPM_P1;HPM_P2
2022/03/16 00:00:46;;;;;;;90.60;42.45;;;7.10;99.90;;;;;;2071340;28;20067;-69
2022/03/16 00:01:47;;;;;;;113.00;45.20;;;7.10;99.90;;;;;;2071459;28;20034;-69
2022/03/16 00:02:48;;;;;;;80.90;43.33;;;7.10;99.90;;;;;;2070938;28;20034;-69
2022/03/16 00:03:49;;;;;;;87.35;44.15;;;7.10;99.90;;;;;;2070677;28;20109;-69
2022/03/16 00:04:52;;;;;;;72.65;41.63;;;7.10;99.90;;;;;;2070980;28;20021;-69
2022/03/16 00:05:54;;;;;;;72.13;40.20;;;7.10;99.90;;;;;;2071030;28;20070;-69
2022/03/16 00:06:54;;;;;;;72.22;40.55;;;7.10;99.90;;;;;;2071245;28;20497;-69
2022/03/16 00:07:55;;;;;;;77.13;41.95;;;7.10;99.90;;;;;;2070490;28;20034;-69
2022/03/16 00:08:55;;;;;;;71.00;40.03;;;7.10;99.90;;;;;;2070660;28;20046;-70
2022/03/16 00:09:56;;;;;;;70.82;39.78;;;7.10;99.90;;;;;;2071188;28;20034;-69
2022/03/16 00:10:58;;;;;;;68.45;39.53;;;7.10;99.90;;;;;;2071404;28;20045;-69
2022/03/16 00:11:58;;;;;;;70.22;38.95;;;7.10;99.90;;;;;;2071217;28;20045;-70
2022/03/16 00:12:59;;;;;;;67.90;39.05;;;7.10;99.90;;;;;;2071116;28;20026;-71
2022/03/16 00:14:00;;;;;;;72.57;41.20;;;7.10;99.90;;;;;;2071236;28;20034;-67
2022/03/16 00:15:00;;;;;;;67.85;39.35;;;7.10;99.90;;;;;;2070696;28;20127;-67
2022/03/16 00:16:01;;;;;;;73.13;41.20;;;7.10;99.90;;;;;;2062118;28;20389;-67
2022/03/16 00:17:05;;;;;;;71.53;39.38;;;7.10;99.90;;;;;;2063523;28;20037;-67
2022/03/16 00:18:06;;;;;;;68.68;38.80;;;7.10;99.90;;;;;;2067791;28;20477;-68
2022/03/16 00:19:06;;;;;;;61.50;35.97;;;7.10;99.90;;;;;;2071166;28;20120;-67
2022/03/16 00:20:07;;;;;;;60.45;34.85;;;7.10;99.90;;;;;;2069245;28;20033;-67
2022/03/16 00:21:08;;;;;;;62.28;37.25;;;7.10;99.90;;;;;;2067691;28;20101;-67
2022/03/16 00:22:09;;;;;;;63.65;37.22;;;7.00;99.90;;;;;;2070812;28;20022;-67
2022/03/16 00:23:09;;;;;;;61.65;35.42;;;7.10;99.90;;;;;;2070930;28;20061;-67
2022/03/16 00:24:10;;;;;;;58.10;35.33;;;7.00;99.90;;;;;;2071468;28;20079;-67
2022/03/16 00:25:11;;;;;;;60.47;35.55;;;7.00;99.90;;;;;;2070844;28;20040;-67
2022/03/16 00:26:11;;;;;;;69.13;38.17;;;7.00;99.90;;;;;;2070834;28;20034;-67
2022/03/16 00:27:12;;;;;;;81.13;41.65;;;7.00;99.90;;;;;;2071676;28;20018;-68
2022/03/16 00:28:13;;;;;;;79.68;42.33;;;7.00;99.90;;;;;;2071493;28;20045;-66
2022/03/16 00:29:13;;;;;;;78.65;41.15;;;7.00;99.90;;;;;;2070745;28;20512;-67
2022/03/16 00:30:14;;;;;;;123.13;47.00;;;7.00;99.90;;;;;;2062672;28;20034;-67
2022/03/16 00:31:16;;;;;;;93.82;43.60;;;7.00;99.90;;;;;;2062772;28;20442;-68
2022/03/16 00:32:17;;;;;;;80.32;42.88;;;7.00;99.90;;;;;;2062706;28;20026;-68
2022/03/16 00:33:17;;;;;;;75.85;42.70;;;6.90;99.90;;;;;;2061847;28;20536;-68
2022/03/16 00:34:19;;;;;;;73.18;40.97;;;6.90;99.90;;;;;;2062494;28;20728;-73
2022/03/16 00:35:21;;;;;;;68.63;39.47;;;6.90;99.90;;;;;;2054661;28;20030;-73
2022/03/16 00:36:22;;;;;;;76.07;41.30;;;6.90;99.90;;;;;;2054400;28;20039;-73
2022/03/16 00:37:22;;;;;;;74.45;40.33;;;6.90;99.90;;;;;;2070682;28;20037;-73
2022/03/16 00:38:23;;;;;;;71.50;40.13;;;6.90;99.90;;;;;;2070742;28;20042;-73
2022/03/16 00:39:23;;;;;;;66.82;39.33;;;6.90;99.90;;;;;;2062366;28;20113;-73
2022/03/16 00:40:24;;;;;;;76.38;39.72;;;6.90;99.90;;;;;;2062219;28;20135;-72
2022/03/16 00:41:25;;;;;;;80.72;40.97;;;6.90;99.90;;;;;;2054516;28;20112;-73
2022/03/16 00:42:25;;;;;;;77.75;40.88;;;6.80;99.90;;;;;;2054392;28;20261;-73
2022/03/16 00:43:26;;;;;;;120.97;46.85;;;6.80;99.90;;;;;;2062124;28;20119;-74
2022/03/16 00:44:28;;;;;;;116.65;46.95;;;6.80;99.90;;;;;;2062316;28;20054;-74
2022/03/16 00:45:29;;;;;;;122.20;46.67;;;6.70;99.90;;;;;;2062261;28;20354;-75
2022/03/16 00:46:29;;;;;;;83.57;43.08;;;6.70;99.90;;;;;;2070346;28;20133;-73
2022/03/16 00:47:30;;;;;;;87.28;44.28;;;6.60;99.90;;;;;;2069966;28;20030;-74
2022/03/16 00:48:30;;;;;;;77.38;41.92;;;6.60;99.90;;;;;;2061789;28;20398;-75
2022/03/16 00:49:31;;;;;;;78.50;42.72;;;6.60;99.90;;;;;;2070517;28;20570;-74
2022/03/16 00:50:34;;;;;;;79.05;42.50;;;6.60;99.90;;;;;;2062200;28;20026;-73
2022/03/16 00:51:34;;;;;;;91.80;42.17;;;6.60;99.90;;;;;;2062406;28;20027;-73
2022/03/16 00:52:35;;;;;;;75.90;40.88;;;6.60;99.90;;;;;;2070474;28;20026;-73
2022/03/16 00:53:36;;;;;;;68.95;38.75;;;6.60;99.90;;;;;;2070087;28;20054;-71
2022/03/16 00:54:37;;;;;;;67.60;38.05;;;6.60;99.90;;;;;;2070213;28;20041;-71
2022/03/16 00:55:37;;;;;;;64.45;36.13;;;6.60;99.90;;;;;;2062036;28;20038;-71
2022/03/16 00:56:38;;;;;;;104.25;43.17;;;6.60;99.90;;;;;;2062143;28;20037;-71
2022/03/16 00:57:39;;;;;;;94.55;43.47;;;6.50;99.90;;;;;;2070507;28;20113;-72
2022/03/16 00:58:40;;;;;;;94.65;43.22;;;6.50;99.90;;;;;;2062288;28;20036;-72
2022/03/16 00:59:40;;;;;;;99.25;44.72;;;6.50;99.90;;;;;;2062251;28;20690;-72
2022/03/16 01:00:41;;;;;;;133.23;44.75;;;6.50;99.90;;;;;;2062397;28;20091;-72
2022/03/16 01:01:41;;;;;;;111.57;45.78;;;6.50;99.90;;;;;;2062171;28;20026;-71
2022/03/16 01:02:42;;;;;;;87.30;42.95;;;6.50;99.90;;;;;;2069803;28;20030;-72
2022/03/16 01:03:43;;;;;;;80.20;41.38;;;6.40;99.90;;;;;;2070178;28;20034;-72
2022/03/16 01:04:44;;;;;;;89.93;43.33;;;6.40;99.90;;;;;;2070206;28;20033;-72
2022/03/16 01:05:45;;;;;;;83.90;41.97;;;6.40;99.90;;;;;;2069978;28;20114;-72
2022/03/16 01:06:45;;;;;;;94.70;43.05;;;6.40;99.90;;;;;;2070279;28;20037;-72
2022/03/16 01:07:46;;;;;;;81.43;41.85;;;6.40;99.90;;;;;;2062110;28;20026;-73
2022/03/16 01:08:47;;;;;;;74.65;39.80;;;6.40;99.90;;;;;;2062248;28;20500;-73
2022/03/16 01:09:48;;;;;;;75.50;40.53;;;6.40;99.90;;;;;;2070254;28;20389;-72
2022/03/16 01:10:48;;;;;;;66.22;37.83;;;6.40;99.90;;;;;;2070233;28;20029;-72
2022/03/16 01:11:49;;;;;;;71.82;37.30;;;6.40;99.90;;;;;;2070609;28;20044;-72
2022/03/16 01:12:50;;;;;;;79.20;39.60;;;6.40;99.90;;;;;;2070090;28;20075;-73
2022/03/16 01:13:50;;;;;;;68.38;37.13;;;6.40;99.90;;;;;;2062129;28;20027;-73
2022/03/16 01:14:51;;;;;;;76.30;39.72;;;6.40;99.90;;;;;;2070274;28;20079;-72
2022/03/16 01:15:52;;;;;;;70.68;38.92;;;6.40;99.90;;;;;;2070733;28;20048;-73
2022/03/16 01:16:53;;;;;;;125.05;43.53;;;6.40;99.90;;;;;;2070907;28;20565;-72
2022/03/16 01:17:54;;;;;;;81.35;40.63;;;6.40;99.90;;;;;;2070362;28;20048;-72
2022/03/16 01:18:54;;;;;;;79.15;39.92;;;6.40;99.90;;;;;;2062129;28;20783;-72
2022/03/16 01:19:55;;;;;;;79.40;39.10;;;6.40;99.90;;;;;;2061721;28;20625;-71
2022/03/16 01:20:56;;;;;;;86.85;40.88;;;6.40;99.90;;;;;;2062127;28;20636;-73
2022/03/16 01:21:57;;;;;;;85.13;40.90;;;6.50;99.90;;;;;;2062274;28;20093;-72
2022/03/16 01:22:57;;;;;;;74.25;38.67;;;6.40;99.90;;;;;;2061824;28;20038;-71
2022/03/16 01:23:59;;;;;;;70.25;37.30;;;6.50;99.90;;;;;;2062119;28;20030;-71
2022/03/16 01:27:38;;;;;;;73.82;36.63;;;6.50;99.90;;;;;;2061474;28;20034;-72
2022/03/16 01:31:04;;;;;;;77.38;37.15;;;6.50;99.90;;;;;;2053245;28;20031;-71
2022/03/16 01:32:08;;;;;;;75.22;38.05;;;6.50;99.90;;;;;;2057198;28;20039;-73
2022/03/16 01:33:08;;;;;;;79.65;38.85;;;6.60;99.90;;;;;;2061354;28;20030;-72
2022/03/16 01:34:09;;;;;;;79.85;40.10;;;6.60;99.90;;;;;;2045474;28;20526;-72
2022/03/16 01:35:10;;;;;;;76.13;38.15;;;6.60;99.90;;;;;;2046831;28;20035;-72
2022/03/16 01:36:10;;;;;;;82.28;39.17;;;6.60;99.90;;;;;;2061964;28;20026;-72
2022/03/16 01:37:14;;;;;;;84.07;40.47;;;6.60;99.90;;;;;;2062264;28;20030;-72
2022/03/16 01:38:14;;;;;;;69.45;38.30;;;6.60;99.90;;;;;;2070144;28;20114;-72
2022/03/16 01:39:15;;;;;;;73.20;37.95;;;6.60;99.90;;;;;;2069793;28;20055;-72
2022/03/16 01:40:16;;;;;;;67.25;36.35;;;6.60;99.90;;;;;;2070408;28;20034;-72
2022/03/16 01:41:16;;;;;;;67.70;35.72;;;6.60;99.90;;;;;;2070383;28;20026;-72
2022/03/16 01:42:17;;;;;;;70.70;37.53;;;6.60;99.90;;;;;;2054413;28;20744;-72
2022/03/16 01:45:48;;;;;;;61.58;33.90;;;6.60;99.90;;;;;;2070976;28;20026;-72
2022/03/16 01:49:11;;;;;;;67.38;34.17;;;6.60;99.90;;;;;;2071229;28;20034;-73
2022/03/16 01:50:12;;;;;;;72.35;35.75;;;6.60;99.90;;;;;;2070781;28;20026;-73
2022/03/16 01:51:13;;;;;;;76.13;37.13;;;6.60;99.90;;;;;;2062626;28;20033;-72
2022/03/16 01:52:22;;;;;;;67.53;36.38;;;6.60;99.90;;;;;;2070789;28;20029;-73
2022/03/16 01:53:24;;;;;;;68.55;35.38;;;6.60;99.90;;;;;;2070987;28;20404;-73
2022/03/16 01:54:25;;;;;;;66.78;36.55;;;6.60;99.90;;;;;;2054631;28;20038;-72
2022/03/16 01:55:26;;;;;;;65.25;35.13;;;6.60;99.90;;;;;;2054417;28;20164;-73
2022/03/16 01:56:27;;;;;;;77.95;39.90;;;6.60;99.90;;;;;;2054077;28;20096;-73
2022/03/16 01:57:27;;;;;;;77.75;38.97;;;6.60;99.90;;;;;;2061958;28;20108;-73
2022/03/16 01:58:29;;;;;;;107.57;42.05;;;6.60;99.90;;;;;;2062204;28;20026;-73
2022/03/16 01:59:34;;;;;;;70.95;38.67;;;6.60;99.90;;;;;;2062704;28;20088;-72
2022/03/16 02:00:35;;;;;;;68.05;37.17;;;6.60;99.90;;;;;;2062169;28;20023;-73
2022/03/16 02:01:36;;;;;;;83.57;38.63;;;6.60;99.90;;;;;;2062082;28;20092;-72
2022/03/16 02:02:37;;;;;;;70.28;37.38;;;6.60;99.90;;;;;;2062064;28;20475;-72
2022/03/16 02:03:37;;;;;;;73.00;38.13;;;6.60;99.90;;;;;;2062044;28;20433;-72
2022/03/16 02:04:38;;;;;;;73.65;38.50;;;6.60;99.90;;;;;;2062125;28;20425;-73
2022/03/16 02:05:39;;;;;;;121.53;42.20;;;6.60;99.90;;;;;;2061878;28;20103;-72
2022/03/16 02:06:40;;;;;;;72.35;38.55;;;6.60;99.90;;;;;;2070284;28;20056;-72
2022/03/16 02:07:43;;;;;;;70.22;38.03;;;6.60;99.90;;;;;;2070657;28;20030;-72
2022/03/16 02:08:45;;;;;;;79.70;38.55;;;6.60;99.90;;;;;;2070123;28;20038;-72
2022/03/16 02:09:46;;;;;;;72.60;37.90;;;6.60;99.90;;;;;;2062066;28;20026;-73
2022/03/16 02:10:47;;;;;;;76.95;38.85;;;6.60;99.90;;;;;;2069679;28;20092;-73
2022/03/16 02:11:48;;;;;;;69.70;38.30;;;6.60;99.90;;;;;;2069868;28;20048;-73
2022/03/16 02:12:51;;;;;;;71.10;37.03;;;6.60;99.90;;;;;;2070869;28;20053;-72
2022/03/16 02:13:51;;;;;;;65.50;35.08;;;6.60;99.90;;;;;;2070586;28;20034;-73
2022/03/16 02:14:52;;;;;;;64.43;35.78;;;6.60;99.90;;;;;;2070347;28;20045;-73
2022/03/16 02:15:53;;;;;;;64.63;35.65;;;6.60;99.90;;;;;;2070522;28;20030;-72
2022/03/16 02:16:56;;;;;;;81.82;38.50;;;6.60;99.90;;;;;;2070165;28;20033;-72
2022/03/16 02:17:57;;;;;;;125.43;42.05;;;6.70;99.90;;;;;;2070746;28;20139;-73
2022/03/16 02:18:58;;;;;;;94.28;40.65;;;6.60;99.90;;;;;;2071021;28;20592;-73
2022/03/16 02:19:58;;;;;;;76.03;38.80;;;6.60;99.90;;;;;;2069952;28;20030;-74
2022/03/16 02:21:02;;;;;;;79.63;38.78;;;6.60;99.90;;;;;;2061986;28;20810;-71
2022/03/16 02:22:08;;;;;;;75.70;38.78;;;6.60;99.90;;;;;;2062958;28;20026;-72
2022/03/16 02:23:09;;;;;;;79.25;38.85;;;6.60;99.90;;;;;;2070161;28;20041;-72
2022/03/16 02:24:09;;;;;;;82.13;39.05;;;6.50;99.90;;;;;;2069693;28;20030;-73
2022/03/16 02:25:10;;;;;;;73.38;39.25;;;6.60;99.90;;;;;;2061832;28;20032;-72
2022/03/16 02:26:12;;;;;;;67.70;37.75;;;6.60;99.90;;;;;;2069800;28;20933;-73
2022/03/16 02:27:13;;;;;;;61.38;35.53;;;6.60;99.90;;;;;;2069367;28;20030;-73
2022/03/16 02:28:13;;;;;;;63.60;36.42;;;6.60;99.90;;;;;;2069763;28;20556;-73
2022/03/16 02:29:14;;;;;;;73.72;38.35;;;6.70;99.90;;;;;;2069760;28;20122;-73
2022/03/16 02:30:15;;;;;;;72.05;37.50;;;6.60;99.90;;;;;;2069602;28;20069;-72
2022/03/16 02:31:17;;;;;;;68.10;37.25;;;6.70;99.90;;;;;;2070385;28;20086;-73
2022/03/16 02:32:17;;;;;;;62.47;36.85;;;6.70;99.90;;;;;;2069641;28;20100;-73
2022/03/16 02:33:18;;;;;;;63.25;35.35;;;6.70;99.90;;;;;;2061655;28;20030;-73
2022/03/16 02:34:19;;;;;;;86.93;38.58;;;6.70;99.90;;;;;;2061667;28;20031;-73
2022/03/16 02:35:21;;;;;;;59.97;35.85;;;6.70;99.90;;;;;;2061654;28;20478;-74
2022/03/16 02:36:22;;;;;;;67.57;36.42;;;6.70;99.90;;;;;;2069449;28;20513;-73
2022/03/16 02:37:22;;;;;;;65.47;37.00;;;6.70;99.90;;;;;;2069882;28;20041;-72
2022/03/16 02:38:23;;;;;;;62.55;35.78;;;6.70;99.90;;;;;;2070119;28;20046;-72
2022/03/16 02:39:24;;;;;;;71.30;37.47;;;6.70;99.90;;;;;;2062018;28;20034;-73
2022/03/16 02:40:24;;;;;;;66.10;36.72;;;6.70;99.90;;;;;;2071365;28;20021;-74
2022/03/16 02:41:25;;;;;;;75.07;36.30;;;6.60;99.90;;;;;;2072894;28;20040;-72
2022/03/16 02:42:26;;;;;;;63.38;35.88;;;6.60;99.90;;;;;;2063306;28;20732;-73
2022/03/16 02:43:27;;;;;;;63.65;35.42;;;6.60;99.90;;;;;;2062854;28;20509;-73
2022/03/16 02:44:28;;;;;;;62.72;34.42;;;6.60;99.90;;;;;;2070558;28;20083;-73
2022/03/16 02:45:29;;;;;;;59.88;34.00;;;6.60;99.90;;;;;;2070838;28;20082;-72
2022/03/16 02:46:29;;;;;;;70.68;35.22;;;6.70;99.90;;;;;;2070198;28;20037;-72
2022/03/16 02:47:30;;;;;;;66.78;35.25;;;6.60;99.90;;;;;;2070123;28;20026;-72
2022/03/16 02:48:31;;;;;;;57.80;33.45;;;6.60;99.90;;;;;;2070280;28;20087;-71
2022/03/16 02:49:32;;;;;;;60.70;34.42;;;6.60;99.90;;;;;;2069646;28;20030;-72
2022/03/16 02:50:33;;;;;;;60.95;34.08;;;6.60;99.90;;;;;;2061310;28;20058;-72
2022/03/16 02:51:33;;;;;;;56.88;33.65;;;6.60;99.90;;;;;;2069593;28;20030;-72
2022/03/16 02:52:34;;;;;;;58.08;33.00;;;6.60;99.90;;;;;;2069644;28;20083;-72
2022/03/16 02:53:35;;;;;;;57.97;33.55;;;6.60;99.90;;;;;;2069647;28;20052;-72
2022/03/16 02:54:36;;;;;;;57.53;33.42;;;6.60;99.90;;;;;;2069554;28;20042;-73
2022/03/16 02:55:36;;;;;;;55.72;33.80;;;6.60;99.90;;;;;;2053435;28;20023;-72
2022/03/16 02:56:37;;;;;;;60.22;34.17;;;6.60;99.90;;;;;;2061386;28;20537;-71
2022/03/16 02:57:39;;;;;;;57.47;33.10;;;6.60;99.90;;;;;;2061126;28;20401;-72
2022/03/16 02:58:39;;;;;;;55.72;31.83;;;6.60;99.90;;;;;;2069380;28;20058;-67
2022/03/16 02:59:40;;;;;;;56.72;31.88;;;6.60;99.90;;;;;;2069335;28;20393;-67
2022/03/16 03:00:41;;;;;;;54.83;32.53;;;6.60;99.90;;;;;;2069374;28;20511;-67
2022/03/16 03:01:42;;;;;;;54.13;32.65;;;6.60;99.90;;;;;;2070063;28;20026;-67
2022/03/16 03:02:44;;;;;;;53.80;31.63;;;6.60;99.90;;;;;;2069463;28;20567;-67
2022/03/16 03:03:45;;;;;;;49.72;30.60;;;6.60;99.90;;;;;;2061573;28;20520;-67
2022/03/16 03:04:46;;;;;;;50.95;29.77;;;6.60;99.90;;;;;;2061463;28;20042;-68
2022/03/16 03:05:46;;;;;;;53.47;32.20;;;6.60;99.90;;;;;;2069248;28;20590;-66
2022/03/16 03:06:47;;;;;;;53.83;32.15;;;6.60;99.90;;;;;;2069486;28;20026;-68
2022/03/16 03:07:48;;;;;;;54.58;31.83;;;6.60;99.90;;;;;;2068976;28;20472;-68
2022/03/16 03:08:48;;;;;;;52.95;31.30;;;6.60;99.90;;;;;;2070066;28;20083;-68
2022/03/16 03:09:49;;;;;;;56.20;32.00;;;6.60;99.90;;;;;;2070189;28;20061;-67
2022/03/16 03:10:50;;;;;;;52.85;30.17;;;6.70;99.90;;;;;;2069444;28;20026;-67
2022/03/16 03:11:50;;;;;;;57.05;32.75;;;6.60;99.90;;;;;;2070446;28;20517;-67
2022/03/16 03:12:51;;;;;;;57.70;31.85;;;6.60;99.90;;;;;;2062774;28;20060;-67
2022/03/16 03:13:52;;;;;;;52.80;30.52;;;6.70;99.90;;;;;;2070773;28;20041;-67
2022/03/16 03:14:52;;;;;;;51.45;30.95;;;6.70;99.90;;;;;;2070826;28;20030;-68
2022/03/16 03:15:53;;;;;;;54.17;31.98;;;6.70;99.90;;;;;;2070759;28;20032;-67
2022/03/16 03:16:54;;;;;;;50.17;31.05;;;6.70;99.90;;;;;;2070614;28;20058;-68
2022/03/16 03:17:55;;;;;;;50.28;30.05;;;6.70;99.90;;;;;;2070875;28;20087;-70
2022/03/16 03:18:55;;;;;;;51.83;30.80;;;6.60;99.90;;;;;;2070824;28;20061;-70
2022/03/16 03:19:56;;;;;;;51.38;29.80;;;6.70;99.90;;;;;;2062602;28;20022;-69
2022/03/16 03:20:56;;;;;;;51.25;30.27;;;6.70;99.90;;;;;;2062773;28;20123;-69
2022/03/16 03:21:57;;;;;;;54.00;30.95;;;6.70;99.90;;;;;;2071312;28;20546;-69
2022/03/16 03:22:58;;;;;;;52.22;30.35;;;6.70;99.90;;;;;;2071382;28;20057;-71
2022/03/16 03:23:58;;;;;;;51.78;29.77;;;6.70;99.90;;;;;;2071445;28;20088;-69
2022/03/16 03:24:59;;;;;;;50.28;29.95;;;6.70;99.90;;;;;;2071364;28;20625;-69
2022/03/16 03:26:00;;;;;;;46.97;29.17;;;6.70;99.90;;;;;;2071306;28;20041;-69
2022/03/16 03:27:00;;;;;;;49.03;28.40;;;6.70;99.90;;;;;;2071244;28;20786;-69
2022/03/16 03:28:01;;;;;;;49.88;29.02;;;6.80;99.90;;;;;;2071450;28;20038;-69
2022/03/16 03:29:02;;;;;;;46.85;28.85;;;6.70;99.90;;;;;;2070801;28;20061;-69
2022/03/16 03:30:05;;;;;;;49.60;27.95;;;6.80;99.90;;;;;;2070677;28;20026;-70
2022/03/16 03:31:05;;;;;;;51.03;30.02;;;6.70;99.90;;;;;;2071330;28;20075;-70
2022/03/16 03:32:06;;;;;;;50.10;29.02;;;6.70;99.90;;;;;;2071354;28;20039;-71
2022/03/16 03:33:07;;;;;;;55.47;29.88;;;6.70;99.90;;;;;;2070705;28;20026;-69
2022/03/16 03:34:07;;;;;;;46.53;28.60;;;6.80;99.90;;;;;;2070631;28;20079;-71
2022/03/16 03:35:08;;;;;;;47.30;28.63;;;6.70;99.90;;;;;;2062484;28;20505;-70
2022/03/16 03:36:09;;;;;;;51.13;29.92;;;6.80;99.90;;;;;;2070703;28;20098;-70
2022/03/16 03:37:10;;;;;;;45.85;29.23;;;6.80;99.90;;;;;;2070589;28;20042;-69
2022/03/16 03:38:11;;;;;;;46.00;27.13;;;6.70;99.90;;;;;;2062852;28;20026;-70
2022/03/16 03:39:11;;;;;;;47.25;27.83;;;6.80;99.90;;;;;;2070794;28;20748;-70
2022/03/16 03:40:12;;;;;;;46.03;28.13;;;6.70;99.90;;;;;;2071282;28;20104;-70
2022/03/16 03:41:13;;;;;;;41.05;26.42;;;6.70;99.90;;;;;;2071286;28;20041;-70
2022/03/16 03:42:13;;;;;;;52.90;30.42;;;6.80;99.90;;;;;;2062619;28;20231;-70
2022/03/16 03:43:14;;;;;;;50.05;28.95;;;6.70;99.90;;;;;;2062655;28;20488;-70
2022/03/16 03:44:15;;;;;;;47.22;28.55;;;6.70;99.90;;;;;;2071413;28;20039;-69
2022/03/16 03:45:15;;;;;;;43.80;27.75;;;6.70;99.90;;;;;;2070743;28;20056;-69
2022/03/16 03:46:16;;;;;;;46.47;27.90;;;6.70;99.90;;;;;;2070330;28;20036;-70
2022/03/16 03:47:16;;;;;;;45.55;28.13;;;6.70;99.90;;;;;;2070545;28;20021;-70
2022/03/16 03:48:17;;;;;;;48.85;30.15;;;6.70;99.90;;;;;;2070792;28;20097;-70
2022/03/16 03:49:18;;;;;;;51.03;29.73;;;6.70;99.90;;;;;;2070747;28;20034;-70
2022/03/16 03:50:19;;;;;;;46.72;28.05;;;6.70;99.90;;;;;;2070588;28;20401;-71
2022/03/16 03:51:20;;;;;;;51.20;28.38;;;6.60;99.90;;;;;;2071278;28;20030;-71
2022/03/16 03:52:21;;;;;;;48.28;29.05;;;6.60;99.90;;;;;;2070645;28;20034;-71
2022/03/16 03:53:21;;;;;;;50.38;30.65;;;6.60;99.90;;;;;;2070532;28;20064;-71
2022/03/16 03:54:22;;;;;;;54.53;30.90;;;6.60;99.90;;;;;;2071211;28;20857;-71
2022/03/16 03:55:23;;;;;;;52.55;30.08;;;6.60;99.90;;;;;;2071171;28;20030;-71
2022/03/16 03:56:24;;;;;;;48.92;29.90;;;6.50;99.90;;;;;;2071111;28;20476;-71
2022/03/16 03:57:24;;;;;;;52.58;30.70;;;6.50;99.90;;;;;;2071021;28;20045;-71
2022/03/16 03:58:25;;;;;;;53.97;30.23;;;6.60;99.90;;;;;;2071133;28;20663;-71
2022/03/16 03:59:25;;;;;;;50.25;30.20;;;6.60;99.90;;;;;;2070579;28;20118;-71
2022/03/16 04:00:26;;;;;;;50.13;30.60;;;6.60;99.90;;;;;;2070297;28;20121;-72
2022/03/16 04:01:27;;;;;;;48.35;29.40;;;6.60;99.90;;;;;;2071247;28;20030;-71
2022/03/16 04:02:27;;;;;;;46.65;28.45;;;6.50;99.90;;;;;;2071282;28;20128;-71
2022/03/16 04:03:28;;;;;;;46.15;28.48;;;6.50;99.90;;;;;;2070494;28;20040;-71
2022/03/16 04:04:28;;;;;;;45.10;28.10;;;6.60;99.90;;;;;;2062575;28;20375;-71
2022/03/16 04:05:29;;;;;;;46.28;27.92;;;6.60;99.90;;;;;;2070586;28;20066;-71
2022/03/16 04:06:31;;;;;;;47.72;28.10;;;6.60;99.90;;;;;;2071104;28;20101;-71
2022/03/16 04:07:32;;;;;;;46.67;28.48;;;6.60;99.90;;;;;;2070432;28;20046;-71
2022/03/16 04:08:32;;;;;;;47.03;28.10;;;6.70;99.90;;;;;;2070788;28;20560;-71
2022/03/16 04:09:33;;;;;;;46.60;28.50;;;6.70;99.90;;;;;;2071354;28;20034;-71
2022/03/16 04:10:36;;;;;;;49.30;28.38;;;6.70;99.90;;;;;;2070443;28;20034;-70
2022/03/16 04:11:37;;;;;;;47.70;28.83;;;6.70;99.90;;;;;;2070440;28;20034;-70
2022/03/16 04:12:38;;;;;;;50.72;28.70;;;6.70;99.90;;;;;;2070409;28;20420;-70
2022/03/16 04:13:39;;;;;;;49.17;29.02;;;6.70;99.90;;;;;;2070787;28;20083;-70
2022/03/16 04:14:39;;;;;;;46.50;28.70;;;6.70;99.90;;;;;;2072635;28;20086;-70
2022/03/16 04:15:40;;;;;;;44.42;27.30;;;6.70;99.90;;;;;;2072668;28;20069;-70
2022/03/16 04:16:41;;;;;;;47.33;29.85;;;6.80;99.90;;;;;;2071919;28;20075;-71
2022/03/16 04:17:41;;;;;;;48.05;28.80;;;6.70;99.90;;;;;;2070498;28;20404;-70
2022/03/16 04:18:42;;;;;;;47.35;28.65;;;6.70;99.90;;;;;;2071228;28;20095;-70
2022/03/16 04:19:42;;;;;;;49.55;29.27;;;6.70;99.90;;;;;;2070512;28;20022;-70
2022/03/16 04:20:43;;;;;;;51.90;29.33;;;6.70;99.90;;;;;;2070205;28;20121;-70
2022/03/16 04:21:44;;;;;;;48.72;28.80;;;6.70;99.90;;;;;;2070556;28;20450;-70
2022/03/16 04:22:44;;;;;;;48.20;28.40;;;6.70;99.90;;;;;;2070209;28;20111;-70
2022/03/16 04:23:45;;;;;;;46.53;28.35;;;6.70;99.90;;;;;;2071183;28;20057;-71
2022/03/16 04:24:45;;;;;;;46.42;28.63;;;6.70;99.90;;;;;;2071080;28;20101;-71
2022/03/16 04:25:46;;;;;;;48.55;29.20;;;6.70;99.90;;;;;;2071087;28;20033;-71
2022/03/16 04:26:47;;;;;;;49.97;29.23;;;6.70;99.90;;;;;;2070616;28;20034;-70
2022/03/16 04:27:47;;;;;;;47.63;28.02;;;6.80;99.90;;;;;;2070379;28;20133;-71
2022/03/16 04:28:48;;;;;;;48.83;29.52;;;6.80;99.90;;;;;;2070242;28;20026;-71
2022/03/16 04:29:50;;;;;;;49.85;28.98;;;6.70;99.90;;;;;;2070599;28;20068;-70
2022/03/16 04:30:51;;;;;;;50.90;28.23;;;6.70;99.90;;;;;;2071093;28;20116;-71
2022/03/16 04:31:51;;;;;;;49.60;28.33;;;6.80;99.90;;;;;;2071036;28;20034;-71
2022/03/16 04:32:52;;;;;;;49.88;29.08;;;6.70;99.90;;;;;;2070414;28;20034;-71
2022/03/16 04:33:53;;;;;;;45.65;27.50;;;6.70;99.90;;;;;;2071565;28;20034;-71
2022/03/16 04:34:54;;;;;;;49.97;28.58;;;6.70;99.90;;;;;;2072344;28;20018;-72
2022/03/16 04:35:55;;;;;;;46.10;27.77;;;6.80;99.90;;;;;;2072501;28;20485;-72
2022/03/16 04:36:55;;;;;;;47.72;28.95;;;6.80;99.90;;;;;;2063220;28;20035;-71
2022/03/16 04:37:56;;;;;;;50.22;29.45;;;6.80;99.90;;;;;;2063788;28;20125;-71
2022/03/16 04:38:57;;;;;;;51.17;29.33;;;6.80;99.90;;;;;;2063560;28;20030;-70
2022/03/16 04:39:58;;;;;;;44.95;28.50;;;6.70;99.90;;;;;;2062548;28;20701;-70
2022/03/16 04:41:03;;;;;;;47.42;27.38;;;6.70;99.90;;;;;;2070339;28;20036;-71
2022/03/16 04:42:04;;;;;;;48.95;29.00;;;6.70;99.90;;;;;;2062689;28;20026;-70
2022/03/16 04:43:05;;;;;;;48.35;28.55;;;6.70;99.90;;;;;;2070329;28;20037;-69
2022/03/16 04:44:06;;;;;;;46.25;27.83;;;6.70;99.90;;;;;;2062152;28;20084;-69
2022/03/16 04:45:07;;;;;;;45.35;28.05;;;6.70;99.90;;;;;;2062279;28;20026;-69
2022/03/16 04:46:07;;;;;;;49.45;28.30;;;6.70;99.90;;;;;;2062436;28;20100;-70
2022/03/16 04:47:08;;;;;;;47.28;28.00;;;6.70;99.90;;;;;;2062276;28;20057;-69
2022/03/16 04:48:11;;;;;;;47.08;27.00;;;6.70;99.90;;;;;;2070703;28;20692;-70
2022/03/16 04:49:12;;;;;;;50.13;29.75;;;6.70;99.90;;;;;;2071097;28;20676;-69
2022/03/16 04:50:12;;;;;;;48.05;28.77;;;6.70;99.90;;;;;;2070896;28;20030;-69
2022/03/16 04:51:13;;;;;;;46.33;28.77;;;6.70;99.90;;;;;;2070219;28;20030;-70
2022/03/16 04:52:13;;;;;;;48.92;29.42;;;6.60;99.90;;;;;;2070304;28;20049;-70
2022/03/16 04:53:14;;;;;;;48.65;27.85;;;6.70;99.90;;;;;;2070840;28;20032;-68
2022/03/16 04:54:16;;;;;;;45.20;27.48;;;6.70;99.90;;;;;;2071023;28;20026;-70
2022/03/16 04:55:17;;;;;;;43.85;26.52;;;6.70;99.90;;;;;;2070251;28;20028;-71
2022/03/16 04:56:18;;;;;;;43.78;27.42;;;6.70;99.90;;;;;;2062568;28;20041;-70
2022/03/16 04:57:18;;;;;;;55.42;29.38;;;6.70;99.90;;;;;;2054210;28;20092;-70
2022/03/16 04:58:19;;;;;;;48.80;28.42;;;6.70;99.90;;;;;;2054429;28;20173;-70
2022/03/16 04:59:19;;;;;;;46.40;28.60;;;6.70;99.90;;;;;;2062531;28;20141;-71
2022/03/16 05:00:20;;;;;;;46.85;27.83;;;6.70;99.90;;;;;;2054095;28;20061;-71
2022/03/16 05:01:21;;;;;;;46.85;28.70;;;6.70;99.90;;;;;;2062423;28;20697;-70
2022/03/16 05:02:21;;;;;;;47.42;28.98;;;6.70;99.90;;;;;;2071101;28;20103;-71
2022/03/16 05:03:22;;;;;;;51.28;29.33;;;6.70;99.90;;;;;;2070840;28;20111;-71
2022/03/16 05:04:23;;;;;;;46.50;27.52;;;6.70;99.90;;;;;;2071161;28;20117;-72
2022/03/16 05:05:23;;;;;;;51.33;28.92;;;6.70;99.90;;;;;;2070554;28;20041;-72
2022/03/16 05:06:24;;;;;;;53.28;31.33;;;6.70;99.90;;;;;;2069870;28;20093;-71
2022/03/16 05:07:24;;;;;;;49.25;28.52;;;6.70;99.90;;;;;;2070411;28;20040;-70
2022/03/16 05:08:25;;;;;;;52.10;29.05;;;6.70;99.90;;;;;;2070957;28;20030;-71
2022/03/16 05:09:26;;;;;;;49.13;29.02;;;6.70;99.90;;;;;;2070904;28;20030;-70
2022/03/16 05:10:26;;;;;;;48.88;28.20;;;6.70;99.90;;;;;;2070164;28;20029;-71
2022/03/16 05:11:27;;;;;;;47.05;28.60;;;6.70;99.90;;;;;;2062200;28;20156;-70
2022/03/16 05:12:28;;;;;;;43.70;27.00;;;6.70;99.90;;;;;;2070207;28;20037;-70
2022/03/16 05:13:28;;;;;;;46.20;27.48;;;6.70;99.90;;;;;;2070794;28;20022;-70
2022/03/16 05:14:29;;;;;;;43.30;27.02;;;6.70;99.90;;;;;;2070012;28;20036;-70
2022/03/16 05:15:30;;;;;;;45.25;28.65;;;6.70;99.90;;;;;;2070285;28;20568;-70
2022/03/16 05:16:30;;;;;;;47.20;28.70;;;6.70;99.90;;;;;;2070167;28;20057;-70
2022/03/16 05:17:31;;;;;;;48.63;28.67;;;6.80;99.90;;;;;;2061729;28;20035;-70
2022/03/16 05:18:31;;;;;;;50.65;29.08;;;6.70;99.90;;;;;;2062207;28;20409;-69
2022/03/16 05:19:32;;;;;;;50.88;28.75;;;6.80;99.90;;;;;;2062152;28;20022;-70
2022/03/16 05:20:32;;;;;;;48.63;29.35;;;6.70;99.90;;;;;;2070287;28;20041;-70
2022/03/16 05:21:33;;;;;;;53.78;29.25;;;6.70;99.90;;;;;;2062374;28;20096;-70
2022/03/16 05:22:48;;;;;;;45.05;28.15;;;6.70;99.90;;;;;;2062794;28;20039;-72